createdAt,value
2022-08-20T00:00:17.087Z,20.88
2022-08-20T00:02:47.642Z,20.89
2022-08-20T00:05:17.194Z,20.89
2022-08-20T00:07:43.934Z,20.88
2022-08-20T00:10:10.688Z,20.87
2022-08-20T00:12:43.221Z,20.85
2022-08-20T00:15:10.094Z,20.89
2022-08-20T00:17:39.460Z,20.89
2022-08-20T00:20:10.308Z,20.93
2022-08-20T00:22:37.033Z,20.97
2022-08-20T00:25:06.334Z,20.99
2022-08-20T00:27:33.123Z,21.00
2022-08-20T00:29:59.902Z,21.02
2022-08-20T00:32:26.481Z,21.00
2022-08-20T00:34:54.547Z,20.98
2022-08-20T00:37:21.139Z,20.95
2022-08-20T00:39:47.819Z,20.93
2022-08-20T00:42:14.564Z,20.89
2022-08-20T00:44:46.319Z,20.80
2022-08-20T00:47:15.788Z,20.71
2022-08-20T00:49:42.459Z,20.62
2022-08-20T00:52:17.614Z,20.50
2022-08-20T00:54:52.154Z,20.42
2022-08-20T00:57:58.936Z,20.38
2022-08-20T01:00:28.855Z,20.36
2022-08-20T01:02:57.812Z,20.30
2022-08-20T01:05:29.426Z,20.30
2022-08-20T01:07:57.704Z,20.28
2022-08-20T01:10:32.546Z,20.30
2022-08-20T01:12:59.948Z,20.30
2022-08-20T01:15:31.909Z,20.34
2022-08-20T01:18:01.068Z,20.36
2022-08-20T01:20:34.178Z,20.36
2022-08-20T01:23:30.036Z,20.40
2022-08-20T01:26:06.117Z,20.40
2022-08-20T01:28:41.375Z,20.38
2022-08-20T01:31:13.498Z,20.37
2022-08-20T01:33:41.135Z,20.33
2022-08-20T01:36:12.549Z,20.30
2022-08-20T01:38:40.327Z,20.29
2022-08-20T01:41:35.299Z,20.25
2022-08-20T01:44:02.693Z,20.22
2022-08-20T01:46:36.890Z,20.23
2022-08-20T01:49:23.697Z,20.23
2022-08-20T01:51:52.750Z,20.21
2022-08-20T01:54:20.403Z,20.25
2022-08-20T01:58:40.757Z,20.25
2022-08-20T02:01:07.482Z,20.30
2022-08-20T02:03:38.762Z,20.33
2022-08-20T02:06:07.068Z,20.35
2022-08-20T02:08:33.789Z,20.39
2022-08-20T02:11:00.317Z,20.37
2022-08-20T02:13:27.080Z,20.39
2022-08-20T02:15:53.783Z,20.41
2022-08-20T02:18:24.006Z,20.42
2022-08-20T02:20:52.437Z,20.46
2022-08-20T02:23:19.040Z,20.44
2022-08-20T02:25:47.719Z,20.44
2022-08-20T02:28:17.924Z,20.46
2022-08-20T02:30:48.407Z,20.49
2022-08-20T02:33:18.112Z,20.52
2022-08-20T02:35:48.083Z,20.55
2022-08-20T02:38:16.276Z,20.48
2022-08-20T02:40:44.349Z,20.42
2022-08-20T02:43:12.293Z,20.34
2022-08-20T02:45:44.067Z,20.26
2022-08-20T02:48:20.821Z,20.22
2022-08-20T02:50:50.965Z,20.14
2022-08-20T02:53:17.992Z,20.09
2022-08-20T02:55:44.715Z,20.03
2022-08-20T02:58:11.780Z,19.99
2022-08-20T03:00:39.034Z,19.95
2022-08-20T03:03:10.494Z,20.03
2022-08-20T03:05:39.411Z,20.01
2022-08-20T03:08:08.462Z,19.95
2022-08-20T03:10:40.060Z,19.87
2022-08-20T03:13:12.831Z,19.76
2022-08-20T03:15:48.592Z,19.64
2022-08-20T03:18:16.434Z,19.53
2022-08-20T03:20:43.619Z,19.41
2022-08-20T03:23:13.389Z,19.33
2022-08-20T03:25:40.126Z,19.22
2022-08-20T03:28:06.874Z,19.18
2022-08-20T03:30:33.711Z,19.11
2022-08-20T03:33:00.333Z,19.08
2022-08-20T03:35:29.127Z,19.06
2022-08-20T03:37:58.827Z,19.03
2022-08-20T03:40:32.151Z,18.98
2022-08-20T03:42:59.983Z,18.96
2022-08-20T03:45:27.828Z,18.94
2022-08-20T03:47:55.692Z,18.93
2022-08-20T03:50:26.048Z,18.90
2022-08-20T03:52:54.190Z,18.88
2022-08-20T03:55:22.593Z,18.89
2022-08-20T03:59:33.179Z,18.87
2022-08-20T04:02:00.966Z,18.86
2022-08-20T04:04:27.591Z,18.88
2022-08-20T04:06:54.462Z,18.88
2022-08-20T04:09:21.198Z,18.92
2022-08-20T04:11:48.103Z,18.93
2022-08-20T04:14:18.701Z,18.96
2022-08-20T04:16:47.568Z,19.02
2022-08-20T04:19:15.807Z,19.03
2022-08-20T04:21:42.442Z,19.09
2022-08-20T04:24:09.069Z,19.14
2022-08-20T04:26:55.925Z,19.18
2022-08-20T04:29:32.452Z,19.30
2022-08-20T04:32:00.760Z,19.42
2022-08-20T04:34:30.606Z,19.56
2022-08-20T04:36:57.250Z,19.73
2022-08-20T04:39:24.045Z,19.86
2022-08-20T04:41:50.657Z,19.95
2022-08-20T04:44:17.290Z,20.09
2022-08-20T04:46:44.027Z,20.21
2022-08-20T04:49:10.747Z,20.29
2022-08-20T04:51:37.331Z,20.37
2022-08-20T04:54:04.592Z,20.45
2022-08-20T04:56:40.803Z,20.53
2022-08-20T04:59:08.241Z,20.56
2022-08-20T05:01:35.942Z,20.59
2022-08-20T05:04:02.804Z,20.65
2022-08-20T05:06:31.719Z,20.69
2022-08-20T05:08:59.566Z,20.69
2022-08-20T05:11:34.110Z,20.75
2022-08-20T05:14:04.063Z,20.75
2022-08-20T05:16:31.455Z,20.78
2022-08-20T05:18:58.064Z,20.80
2022-08-20T05:21:24.716Z,20.89
2022-08-20T05:23:51.344Z,20.94
2022-08-20T05:26:20.329Z,20.99
2022-08-20T05:28:57.924Z,21.04
2022-08-20T05:31:31.457Z,21.11
2022-08-20T05:33:59.678Z,21.16
2022-08-20T05:36:26.379Z,21.27
2022-08-20T05:38:53.976Z,21.33
2022-08-20T05:41:28.837Z,21.49
2022-08-20T05:44:03.020Z,21.64
2022-08-20T05:46:31.609Z,21.81
2022-08-20T05:49:00.115Z,22.06
2022-08-20T05:51:29.487Z,22.30
2022-08-20T05:53:59.334Z,22.53
2022-08-20T05:56:27.422Z,22.77
2022-08-20T06:00:33.451Z,23.25
2022-08-20T06:03:18.745Z,23.62
2022-08-20T06:05:46.060Z,24.05
2022-08-20T06:08:14.774Z,24.40
2022-08-20T06:10:42.619Z,24.63
2022-08-20T06:13:13.934Z,24.79
2022-08-20T06:15:41.146Z,24.98
2022-08-20T06:18:13.005Z,25.14
2022-08-20T06:20:55.735Z,25.31
2022-08-20T06:23:23.471Z,25.57
2022-08-20T06:25:50.523Z,25.80
2022-08-20T06:28:17.927Z,25.78
2022-08-20T06:30:44.745Z,25.69
2022-08-20T06:33:14.167Z,25.52
2022-08-20T06:35:41.589Z,25.48
2022-08-20T06:38:11.923Z,25.55
2022-08-20T06:40:38.840Z,26.04
2022-08-20T06:43:06.518Z,26.56
2022-08-20T06:45:33.340Z,27.09
2022-08-20T06:48:06.317Z,27.54
2022-08-20T06:50:45.847Z,27.90
2022-08-20T06:53:17.551Z,28.22
2022-08-20T06:55:48.754Z,28.50
2022-08-20T06:58:37.705Z,28.79
2022-08-20T07:01:09.191Z,29.08
2022-08-20T07:03:38.475Z,29.33
2022-08-20T07:06:05.470Z,29.47
2022-08-20T07:08:33.408Z,29.60
2022-08-20T07:11:00.133Z,29.88
2022-08-20T07:13:26.952Z,30.08
2022-08-20T07:15:54.007Z,30.33
2022-08-20T07:18:27.865Z,30.51
2022-08-20T07:20:57.661Z,30.64
2022-08-20T07:23:28.050Z,30.85
2022-08-20T07:25:55.874Z,30.90
2022-08-20T07:28:27.242Z,30.78
2022-08-20T07:31:14.451Z,30.69
2022-08-20T07:33:45.501Z,30.77
2022-08-20T07:36:12.996Z,31.03
2022-08-20T07:38:40.126Z,31.22
2022-08-20T07:41:13.471Z,31.51
2022-08-20T07:43:41.796Z,31.51
2022-08-20T07:46:09.408Z,31.53
2022-08-20T07:48:40.193Z,31.60
2022-08-20T07:51:09.133Z,31.86
2022-08-20T07:53:37.919Z,32.10
2022-08-20T07:56:07.264Z,32.43
2022-08-20T08:01:36.530Z,32.71
2022-08-20T08:04:03.841Z,32.90
2022-08-20T08:06:31.793Z,33.30
2022-08-20T08:09:04.491Z,33.73
2022-08-20T08:11:39.339Z,33.87
2022-08-20T08:14:09.683Z,33.88
2022-08-20T08:16:40.028Z,34.00
2022-08-20T08:19:09.218Z,34.20
2022-08-20T08:21:36.002Z,34.35
2022-08-20T08:24:03.296Z,34.26
2022-08-20T08:26:30.114Z,34.05
2022-08-20T08:28:58.522Z,33.75
2022-08-20T08:31:25.984Z,33.36
2022-08-20T08:33:52.824Z,33.36
2022-08-20T08:36:19.472Z,33.54
2022-08-20T08:38:46.572Z,34.09
2022-08-20T08:41:34.226Z,34.45
2022-08-20T08:44:09.565Z,34.48
2022-08-20T08:46:41.876Z,34.32
2022-08-20T08:49:12.924Z,34.07
2022-08-20T08:51:48.003Z,33.82
2022-08-20T08:54:18.510Z,33.61
2022-08-20T08:56:50.156Z,33.37
2022-08-20T08:59:21.762Z,33.24
2022-08-20T09:01:57.265Z,33.33
2022-08-20T09:04:32.513Z,33.28
2022-08-20T09:07:01.811Z,33.18
2022-08-20T09:09:41.281Z,33.09
2022-08-20T09:12:13.743Z,33.11
2022-08-20T09:14:41.106Z,33.09
2022-08-20T09:17:08.954Z,33.21
2022-08-20T09:19:35.779Z,33.38
2022-08-20T09:22:16.770Z,33.38
2022-08-20T09:24:44.209Z,33.27
2022-08-20T09:27:11.545Z,33.32
2022-08-20T09:29:39.689Z,33.45
2022-08-20T09:32:27.270Z,33.54
2022-08-20T09:34:59.996Z,33.38
2022-08-20T09:37:35.142Z,33.31
2022-08-20T09:40:05.125Z,33.11
2022-08-20T09:42:40.387Z,32.93
2022-08-20T09:45:11.006Z,32.70
2022-08-20T09:47:38.916Z,32.63
2022-08-20T09:50:10.817Z,32.57
2022-08-20T09:52:42.400Z,32.55
2022-08-20T09:55:22.871Z,32.48
2022-08-20T09:57:51.131Z,32.44
2022-08-20T10:02:35.614Z,32.39
2022-08-20T10:05:02.237Z,32.14
2022-08-20T10:07:28.789Z,31.96
2022-08-20T10:09:55.596Z,31.78
2022-08-20T10:12:22.147Z,31.67
2022-08-20T10:14:50.040Z,31.71
2022-08-20T10:17:16.595Z,31.65
2022-08-20T10:19:43.198Z,31.59
2022-08-20T10:22:09.828Z,31.69
2022-08-20T10:24:37.505Z,31.86
2022-08-20T10:27:04.402Z,31.75
2022-08-20T10:29:31.500Z,31.81
2022-08-20T10:32:07.491Z,31.79
2022-08-20T10:34:34.078Z,31.86
2022-08-20T10:37:00.639Z,31.83
2022-08-20T10:39:27.249Z,31.63
2022-08-20T10:41:58.159Z,31.59
2022-08-20T10:44:24.774Z,31.61
2022-08-20T10:46:56.168Z,31.50
2022-08-20T10:49:23.928Z,31.43
2022-08-20T10:51:52.558Z,31.45
2022-08-20T10:54:19.214Z,31.52
2022-08-20T10:56:45.812Z,31.52
2022-08-20T10:59:12.375Z,31.40
2022-08-20T11:01:39.049Z,31.20
2022-08-20T11:04:06.752Z,31.08
2022-08-20T11:06:33.345Z,31.15
2022-08-20T11:09:00.383Z,31.29
2022-08-20T11:11:29.323Z,31.24
2022-08-20T11:13:56.569Z,31.29
2022-08-20T11:16:24.525Z,31.23
2022-08-20T11:18:54.065Z,31.14
2022-08-20T11:21:20.842Z,31.16
2022-08-20T11:23:47.581Z,31.17
2022-08-20T11:26:21.903Z,31.04
2022-08-20T11:28:48.671Z,30.82
2022-08-20T11:31:15.274Z,30.76
2022-08-20T11:33:41.862Z,30.71
2022-08-20T11:36:09.905Z,30.71
2022-08-20T11:38:36.451Z,30.53
2022-08-20T11:41:02.996Z,30.45
2022-08-20T11:43:29.580Z,30.48
2022-08-20T11:45:56.553Z,30.40
2022-08-20T11:48:23.639Z,30.34
2022-08-20T11:50:50.749Z,30.46
2022-08-20T11:53:17.891Z,30.59
2022-08-20T11:55:45.034Z,30.61
2022-08-20T11:58:12.400Z,30.60
2022-08-20T12:03:33.129Z,30.51
2022-08-20T12:05:59.888Z,30.49
2022-08-20T12:08:27.410Z,30.40
2022-08-20T12:11:01.073Z,30.19
2022-08-20T12:13:39.679Z,30.16
2022-08-20T12:16:14.423Z,30.27
2022-08-20T12:18:41.076Z,30.28
2022-08-20T12:21:07.719Z,30.19
2022-08-20T12:23:34.421Z,30.15
2022-08-20T12:26:03.359Z,30.22
2022-08-20T12:28:31.560Z,30.23
2022-08-20T12:30:58.613Z,30.17
2022-08-20T12:33:25.806Z,30.06
2022-08-20T12:35:52.890Z,29.99
2022-08-20T12:38:19.738Z,30.01
2022-08-20T12:40:46.696Z,30.04
2022-08-20T12:43:13.313Z,30.07
2022-08-20T12:45:43.131Z,29.96
2022-08-20T12:48:12.637Z,29.96
2022-08-20T12:50:43.147Z,29.93
2022-08-20T12:53:10.009Z,29.91
2022-08-20T12:55:37.039Z,30.00
2022-08-20T12:58:08.019Z,30.04
2022-08-20T13:00:38.641Z,30.03
2022-08-20T13:03:06.894Z,30.00
2022-08-20T13:05:35.033Z,29.84
2022-08-20T13:08:01.982Z,29.87
2022-08-20T13:10:34.063Z,29.95
2022-08-20T13:13:04.041Z,30.04
2022-08-20T13:15:32.481Z,30.12
2022-08-20T13:18:02.072Z,30.17
2022-08-20T13:20:34.003Z,30.20
2022-08-20T13:23:02.227Z,30.19
2022-08-20T13:25:28.895Z,30.23
2022-08-20T13:28:01.153Z,30.17
2022-08-20T13:30:27.809Z,30.21
2022-08-20T13:32:54.759Z,30.07
2022-08-20T13:35:22.483Z,30.08
2022-08-20T13:37:50.029Z,30.05
2022-08-20T13:40:17.874Z,29.93
2022-08-20T13:42:44.676Z,29.88
2022-08-20T13:45:11.557Z,29.83
2022-08-20T13:47:40.597Z,29.80
2022-08-20T13:50:12.957Z,29.79
2022-08-20T13:52:40.095Z,29.77
2022-08-20T13:55:11.383Z,29.75
2022-08-20T13:57:41.354Z,29.72
2022-08-20T14:00:13.116Z,29.67
2022-08-20T14:04:40.156Z,29.73
2022-08-20T14:07:09.764Z,29.79
2022-08-20T14:09:46.091Z,29.87
2022-08-20T14:12:13.523Z,29.86
2022-08-20T14:14:41.089Z,29.87
2022-08-20T14:17:22.080Z,29.82
2022-08-20T14:19:49.498Z,29.74
2022-08-20T14:22:17.939Z,29.67
2022-08-20T14:24:47.063Z,29.60
2022-08-20T14:27:15.902Z,29.54
2022-08-20T14:29:44.716Z,29.46
2022-08-20T14:32:11.508Z,29.40
2022-08-20T14:34:38.390Z,29.35
2022-08-20T14:37:14.166Z,29.24
2022-08-20T14:39:42.089Z,29.15
2022-08-20T14:42:09.105Z,29.07
2022-08-20T14:44:36.402Z,29.00
2022-08-20T14:47:14.973Z,28.95
2022-08-20T14:49:42.385Z,28.92
2022-08-20T14:52:09.285Z,28.90
2022-08-20T14:54:39.099Z,28.86
2022-08-20T14:57:05.972Z,28.82
2022-08-20T14:59:40.321Z,28.80
2022-08-20T15:02:09.196Z,28.76
2022-08-20T15:04:36.548Z,28.77
2022-08-20T15:07:10.847Z,28.71
2022-08-20T15:09:37.826Z,28.62
2022-08-20T15:12:04.896Z,28.50
2022-08-20T15:14:31.515Z,28.48
2022-08-20T15:16:58.455Z,28.45
2022-08-20T15:19:25.119Z,28.45
2022-08-20T15:21:52.814Z,28.37
2022-08-20T15:24:19.738Z,28.40
2022-08-20T15:26:47.025Z,28.43
2022-08-20T15:29:22.671Z,28.37
2022-08-20T15:31:50.591Z,28.30
2022-08-20T15:34:17.546Z,28.27
2022-08-20T15:36:44.892Z,28.19
2022-08-20T15:39:11.446Z,28.17
2022-08-20T15:41:38.051Z,28.18
2022-08-20T15:44:04.844Z,28.13
2022-08-20T15:46:36.121Z,28.11
2022-08-20T15:49:11.435Z,28.04
2022-08-20T15:51:49.683Z,27.93
2022-08-20T15:54:22.972Z,27.88
2022-08-20T15:56:59.858Z,27.78
2022-08-20T16:00:00.669Z,27.81
2022-08-20T16:05:52.820Z,27.69
2022-08-20T16:08:34.615Z,27.70
2022-08-20T16:11:20.147Z,27.66
2022-08-20T16:13:55.212Z,27.57
2022-08-20T16:16:33.717Z,27.50
2022-08-20T16:19:00.815Z,27.51
2022-08-20T16:21:34.882Z,27.49
2022-08-20T16:24:01.782Z,27.45
2022-08-20T16:26:43.874Z,27.39
2022-08-20T16:29:15.011Z,27.35
2022-08-20T16:32:00.369Z,27.26
2022-08-20T16:34:45.874Z,27.19
2022-08-20T16:37:25.800Z,27.14
2022-08-20T16:39:58.040Z,27.07
2022-08-20T16:42:29.720Z,26.99
2022-08-20T16:44:57.735Z,26.88
2022-08-20T16:47:35.938Z,26.72
2022-08-20T16:50:13.627Z,26.60
2022-08-20T16:52:44.509Z,26.51
2022-08-20T16:55:12.852Z,26.48
2022-08-20T16:57:50.100Z,26.43
2022-08-20T17:00:25.748Z,26.41
2022-08-20T17:02:54.566Z,26.29
2022-08-20T17:05:23.963Z,26.21
2022-08-20T17:08:04.757Z,26.11
2022-08-20T17:10:53.287Z,26.08
2022-08-20T17:13:23.853Z,26.03
2022-08-20T17:15:58.432Z,25.98
2022-08-20T17:18:32.793Z,25.92
2022-08-20T17:21:23.293Z,25.90
2022-08-20T17:23:56.443Z,25.84
2022-08-20T17:26:35.577Z,25.75
2022-08-20T17:29:13.609Z,25.71
2022-08-20T17:31:45.659Z,25.64
2022-08-20T17:34:19.350Z,25.55
2022-08-20T17:37:34.736Z,25.42
2022-08-20T17:40:18.355Z,25.28
2022-08-20T17:42:58.526Z,25.18
2022-08-20T17:45:30.702Z,25.10
2022-08-20T17:48:00.123Z,25.02
2022-08-20T17:50:37.214Z,24.97
2022-08-20T17:53:24.311Z,24.90
2022-08-20T17:55:58.496Z,24.88
2022-08-20T17:58:41.917Z,24.86
2022-08-20T18:01:24.427Z,24.79
2022-08-20T18:06:58.614Z,24.60
2022-08-20T18:09:38.220Z,24.57
2022-08-20T18:12:21.796Z,24.44
2022-08-20T18:15:24.481Z,24.36
2022-08-20T18:18:01.326Z,24.24
2022-08-20T18:20:52.645Z,24.21
2022-08-20T18:23:25.514Z,24.19
2022-08-20T18:25:55.285Z,24.18
2022-08-20T18:28:45.796Z,24.15
2022-08-20T18:31:45.176Z,24.13
2022-08-20T18:34:19.774Z,24.14
2022-08-20T18:36:58.393Z,24.05
2022-08-20T18:39:39.436Z,23.99
2022-08-20T18:42:09.265Z,23.96
2022-08-20T18:44:48.381Z,23.87
2022-08-20T18:47:33.345Z,23.86
2022-08-20T18:50:15.866Z,23.81
2022-08-20T18:53:07.379Z,23.72
2022-08-20T18:55:38.578Z,23.65
2022-08-20T18:58:09.226Z,23.55
2022-08-20T19:00:48.052Z,23.40
2022-08-20T19:03:24.053Z,23.29
2022-08-20T19:06:02.752Z,23.17
2022-08-20T19:08:45.158Z,23.05
2022-08-20T19:11:20.521Z,22.97
2022-08-20T19:14:20.230Z,22.87
2022-08-20T19:16:58.883Z,22.81
2022-08-20T19:19:29.653Z,22.75
2022-08-20T19:22:01.170Z,22.70
2022-08-20T19:24:31.480Z,22.65
2022-08-20T19:27:02.480Z,22.65
2022-08-20T19:29:32.763Z,22.66
2022-08-20T19:32:09.706Z,22.65
2022-08-20T19:34:36.563Z,22.63
2022-08-20T19:37:35.502Z,22.68
2022-08-20T19:40:18.660Z,22.68
2022-08-20T19:42:45.912Z,22.71
2022-08-20T19:45:24.270Z,22.68
2022-08-20T19:48:10.545Z,22.65
2022-08-20T19:51:03.031Z,22.67
2022-08-20T19:53:32.722Z,22.71
2022-08-20T19:56:07.229Z,22.71
2022-08-20T19:58:34.918Z,22.73
2022-08-20T20:01:03.323Z,22.68
2022-08-20T20:03:34.206Z,22.68
2022-08-20T20:07:43.248Z,22.72
2022-08-20T20:10:29.438Z,22.61
2022-08-20T20:12:59.598Z,22.60
2022-08-20T20:15:26.695Z,22.60
2022-08-20T20:17:54.838Z,22.61
2022-08-20T20:20:32.172Z,22.60
2022-08-20T20:23:13.561Z,22.58
2022-08-20T20:25:53.451Z,22.54
2022-08-20T20:28:29.259Z,22.49
2022-08-20T20:31:06.567Z,22.48
2022-08-20T20:33:43.916Z,22.48
2022-08-20T20:36:30.390Z,22.51
2022-08-20T20:39:00.539Z,22.46
2022-08-20T20:41:31.372Z,22.42
2022-08-20T20:44:22.344Z,22.46
2022-08-20T20:46:52.677Z,22.42
2022-08-20T20:49:24.919Z,22.38
2022-08-20T20:51:59.425Z,22.32
2022-08-20T20:54:35.333Z,22.20
2022-08-20T20:57:05.869Z,22.16
2022-08-20T20:59:34.859Z,22.15
2022-08-20T21:02:03.005Z,22.08
2022-08-20T21:04:42.466Z,22.08
2022-08-20T21:07:16.611Z,22.01
2022-08-20T21:09:44.155Z,22.00
2022-08-20T21:12:14.375Z,22.00
2022-08-20T21:14:44.270Z,22.03
2022-08-20T21:17:22.902Z,22.03
2022-08-20T21:19:53.859Z,21.98
2022-08-20T21:22:52.521Z,21.99
2022-08-20T21:25:22.538Z,21.96
2022-08-20T21:27:59.609Z,22.00
2022-08-20T21:31:09.162Z,21.96
2022-08-20T21:34:04.322Z,21.94
2022-08-20T21:37:09.710Z,21.88
2022-08-20T21:39:44.840Z,21.84
2022-08-20T21:42:29.278Z,21.81
2022-08-20T21:47:52.160Z,21.64
2022-08-20T21:50:20.578Z,21.60
2022-08-20T21:52:59.279Z,21.49
2022-08-20T21:55:29.704Z,21.40
2022-08-20T21:58:00.034Z,21.29
2022-08-20T22:00:48.596Z,21.23
2022-08-20T22:03:19.966Z,21.10
2022-08-20T22:08:39.190Z,20.87
2022-08-20T22:11:11.103Z,20.80
2022-08-20T22:13:39.544Z,20.74
2022-08-20T22:16:08.911Z,20.68
2022-08-20T22:18:38.521Z,20.63
2022-08-20T22:21:10.190Z,20.61
2022-08-20T22:23:40.084Z,20.58
2022-08-20T22:26:08.175Z,20.52
2022-08-20T22:28:35.080Z,20.49
2022-08-20T22:31:02.070Z,20.45
2022-08-20T22:33:28.734Z,20.40
2022-08-20T22:35:56.993Z,20.31
2022-08-20T22:38:25.091Z,20.30
2022-08-20T22:40:52.827Z,20.24
2022-08-20T22:43:20.616Z,20.22
2022-08-20T22:45:50.003Z,20.17
2022-08-20T22:48:19.156Z,20.15
2022-08-20T22:50:46.454Z,20.13
2022-08-20T22:53:17.702Z,20.06
2022-08-20T22:55:44.383Z,19.98
2022-08-20T22:58:12.767Z,19.93
2022-08-20T23:00:40.196Z,19.85
2022-08-20T23:03:10.504Z,19.84
2022-08-20T23:05:38.078Z,19.78
2022-08-20T23:08:06.805Z,19.71
2022-08-20T23:10:36.080Z,19.73
2022-08-20T23:13:05.165Z,19.69
2022-08-20T23:15:34.943Z,19.68
2022-08-20T23:18:06.747Z,19.67
2022-08-20T23:20:33.536Z,19.68
2022-08-20T23:23:00.309Z,19.66
2022-08-20T23:25:27.281Z,19.63
2022-08-20T23:27:56.670Z,19.63
2022-08-20T23:30:30.309Z,19.58
2022-08-20T23:32:57.074Z,19.57
2022-08-20T23:35:25.339Z,19.56
2022-08-20T23:37:58.730Z,19.54
2022-08-20T23:40:28.653Z,19.53
2022-08-20T23:42:56.607Z,19.55
2022-08-20T23:45:23.760Z,19.57
2022-08-20T23:47:50.688Z,19.54
2022-08-20T23:50:20.835Z,19.50
2022-08-20T23:52:47.728Z,19.48
2022-08-20T23:55:14.480Z,19.47
2022-08-20T23:57:41.324Z,19.45
